createdAt,value
2022-07-25T00:00:11.741Z,58.22
2022-07-25T00:02:39.525Z,58.16
2022-07-25T00:05:08.154Z,57.66
2022-07-25T00:07:35.914Z,58.06
2022-07-25T00:10:03.934Z,58.51
2022-07-25T00:12:31.592Z,58.83
2022-07-25T00:15:00.777Z,58.86
2022-07-25T00:17:28.499Z,58.46
2022-07-25T00:19:56.161Z,58.38
2022-07-25T00:22:23.874Z,59.28
2022-07-25T00:24:51.596Z,59.77
2022-07-25T00:27:19.232Z,59.06
2022-07-25T00:29:46.941Z,58.97
2022-07-25T00:32:16.090Z,59.42
2022-07-25T00:34:43.859Z,59.36
2022-07-25T00:37:11.564Z,59.43
2022-07-25T00:39:39.249Z,59.32
2022-07-25T00:42:07.322Z,59.42
2022-07-25T00:44:35.164Z,59.74
2022-07-25T00:47:03.062Z,60.07
2022-07-25T00:49:32.089Z,60.22
2022-07-25T00:52:00.336Z,60.27
2022-07-25T00:54:28.227Z,60.23
2022-07-25T00:56:56.014Z,60.45
2022-07-25T00:59:23.722Z,60.38
2022-07-25T01:01:51.906Z,60.39
2022-07-25T01:04:19.705Z,60.62
2022-07-25T01:06:48.762Z,60.68
2022-07-25T01:09:17.143Z,60.91
2022-07-25T01:11:44.812Z,61.02
2022-07-25T01:14:12.467Z,61.15
2022-07-25T01:16:41.201Z,60.79
2022-07-25T01:19:08.938Z,60.60
2022-07-25T01:21:40.588Z,60.93
2022-07-25T01:24:09.412Z,61.02
2022-07-25T01:26:37.299Z,61.08
2022-07-25T01:29:05.104Z,61.45
2022-07-25T01:31:32.861Z,61.73
2022-07-25T01:34:00.537Z,61.90
2022-07-25T01:36:28.286Z,61.84
2022-07-25T01:38:57.245Z,61.48
2022-07-25T01:41:24.950Z,61.67
2022-07-25T01:43:52.633Z,61.33
2022-07-25T01:46:20.315Z,61.56
2022-07-25T01:48:48.094Z,62.02
2022-07-25T01:51:15.839Z,61.76
2022-07-25T01:53:48.132Z,62.24
2022-07-25T01:56:17.408Z,62.40
2022-07-25T01:58:47.118Z,62.66
2022-07-25T02:01:14.831Z,62.25
2022-07-25T02:03:42.639Z,62.98
2022-07-25T02:06:10.315Z,63.03
2022-07-25T02:08:37.978Z,62.76
2022-07-25T02:11:05.774Z,62.38
2022-07-25T02:13:34.806Z,62.32
2022-07-25T02:16:02.445Z,62.52
2022-07-25T02:18:30.549Z,62.43
2022-07-25T02:20:58.265Z,63.36
2022-07-25T02:23:25.917Z,63.60
2022-07-25T02:25:53.551Z,63.99
2022-07-25T02:28:21.229Z,63.79
2022-07-25T02:30:50.272Z,63.97
2022-07-25T02:33:18.102Z,64.57
2022-07-25T02:35:45.726Z,65.05
2022-07-25T02:38:19.419Z,65.23
2022-07-25T02:40:47.334Z,64.93
2022-07-25T02:43:14.995Z,65.15
2022-07-25T02:45:43.607Z,65.07
2022-07-25T02:48:12.724Z,65.13
2022-07-25T02:50:40.694Z,65.10
2022-07-25T02:53:08.346Z,65.03
2022-07-25T02:55:35.961Z,65.30
2022-07-25T02:58:03.660Z,66.08
2022-07-25T03:00:31.403Z,66.59
2022-07-25T03:02:59.381Z,67.09
2022-07-25T03:05:28.483Z,67.71
2022-07-25T03:07:56.234Z,68.11
2022-07-25T03:10:23.879Z,68.30
2022-07-25T03:12:51.552Z,68.09
2022-07-25T03:15:19.230Z,67.72
2022-07-25T03:17:46.992Z,68.38
2022-07-25T03:20:14.683Z,68.77
2022-07-25T03:22:43.765Z,68.87
2022-07-25T03:25:15.567Z,68.73
2022-07-25T03:27:49.601Z,68.57
2022-07-25T03:30:17.282Z,68.33
2022-07-25T03:32:44.942Z,69.24
2022-07-25T03:35:12.643Z,69.48
2022-07-25T03:37:40.351Z,69.76
2022-07-25T03:40:10.399Z,69.98
2022-07-25T03:42:38.027Z,69.84
2022-07-25T03:45:06.615Z,69.88
2022-07-25T03:47:34.200Z,70.04
2022-07-25T03:50:01.901Z,70.10
2022-07-25T03:52:29.519Z,69.77
2022-07-25T03:54:57.195Z,70.06
2022-07-25T03:57:26.245Z,70.30
2022-07-25T03:59:53.922Z,70.70
2022-07-25T04:02:21.653Z,70.64
2022-07-25T04:04:49.335Z,70.77
2022-07-25T04:07:17.024Z,70.46
2022-07-25T04:09:44.699Z,70.54
2022-07-25T04:12:12.806Z,70.46
2022-07-25T04:14:41.786Z,70.09
2022-07-25T04:17:09.518Z,69.84
2022-07-25T04:19:37.339Z,69.62
2022-07-25T04:22:05.038Z,69.85
2022-07-25T04:24:32.646Z,69.84
2022-07-25T04:27:00.314Z,69.65
2022-07-25T04:29:27.978Z,69.60
2022-07-25T04:31:58.064Z,69.46
2022-07-25T04:34:26.181Z,69.45
2022-07-25T04:36:53.896Z,69.25
2022-07-25T04:39:21.602Z,69.47
2022-07-25T04:41:49.318Z,69.19
2022-07-25T04:44:16.987Z,69.20
2022-07-25T04:46:44.800Z,69.06
2022-07-25T04:49:13.848Z,69.23
2022-07-25T04:51:41.511Z,69.01
2022-07-25T04:54:09.923Z,69.38
2022-07-25T04:56:37.860Z,69.35
2022-07-25T04:59:06.387Z,69.43
2022-07-25T05:01:34.693Z,69.23
2022-07-25T05:04:02.863Z,69.24
2022-07-25T05:06:32.000Z,69.13
2022-07-25T05:08:59.617Z,69.21
2022-07-25T05:11:27.278Z,69.12
2022-07-25T05:13:54.906Z,68.72
2022-07-25T05:16:22.587Z,68.57
2022-07-25T05:18:50.245Z,68.47
2022-07-25T05:21:17.895Z,68.95
2022-07-25T05:23:46.896Z,68.86
2022-07-25T05:26:14.507Z,68.96
2022-07-25T05:28:42.196Z,69.27
2022-07-25T05:31:09.836Z,69.01
2022-07-25T05:33:37.524Z,68.71
2022-07-25T05:36:05.981Z,68.08
2022-07-25T05:38:34.018Z,67.43
2022-07-25T05:41:03.127Z,67.13
2022-07-25T05:43:30.790Z,66.24
2022-07-25T05:46:01.899Z,66.41
2022-07-25T05:48:29.715Z,66.17
2022-07-25T05:50:59.126Z,66.14
2022-07-25T05:53:27.174Z,66.04
2022-07-25T05:55:54.938Z,65.60
2022-07-25T05:58:29.082Z,65.82
2022-07-25T06:00:57.748Z,66.25
2022-07-25T06:03:25.504Z,64.91
2022-07-25T06:05:53.181Z,64.97
2022-07-25T06:08:20.905Z,64.89
2022-07-25T06:10:50.235Z,65.06
2022-07-25T06:13:17.943Z,65.38
2022-07-25T06:15:49.883Z,66.01
2022-07-25T06:18:17.530Z,66.16
2022-07-25T06:20:45.210Z,65.28
2022-07-25T06:23:12.894Z,65.36
2022-07-25T06:25:40.834Z,65.85
2022-07-25T06:28:08.956Z,65.73
2022-07-25T06:30:38.404Z,65.58
2022-07-25T06:33:07.520Z,65.77
2022-07-25T06:35:35.173Z,65.28
2022-07-25T06:38:03.339Z,64.79
2022-07-25T06:40:31.094Z,65.73
2022-07-25T06:42:58.906Z,64.65
2022-07-25T06:45:26.548Z,64.55
2022-07-25T06:47:54.236Z,64.99
2022-07-25T06:50:23.379Z,64.28
2022-07-25T06:52:51.359Z,63.51
2022-07-25T06:55:19.103Z,63.71
2022-07-25T06:57:46.902Z,63.18
2022-07-25T07:00:15.707Z,62.71
2022-07-25T07:02:54.366Z,61.99
2022-07-25T07:05:23.826Z,62.38
2022-07-25T07:07:51.491Z,62.51
2022-07-25T07:10:19.449Z,61.96
2022-07-25T07:12:47.596Z,61.17
2022-07-25T07:15:15.439Z,60.26
2022-07-25T07:17:43.273Z,59.77
2022-07-25T07:20:12.345Z,59.65
2022-07-25T07:22:46.636Z,59.50
2022-07-25T07:25:15.446Z,59.34
2022-07-25T07:27:43.501Z,59.70
2022-07-25T07:30:12.225Z,59.18
2022-07-25T07:32:40.133Z,58.57
2022-07-25T07:35:08.451Z,59.31
2022-07-25T07:37:41.457Z,58.71
2022-07-25T07:40:18.149Z,58.40
2022-07-25T07:42:47.490Z,58.49
2022-07-25T07:45:16.742Z,57.79
2022-07-25T07:47:45.048Z,57.54
2022-07-25T07:50:12.772Z,57.19
2022-07-25T07:52:40.424Z,57.36
2022-07-25T07:55:26.495Z,57.46
2022-07-25T07:57:55.555Z,56.81
2022-07-25T08:00:23.792Z,56.81
2022-07-25T08:02:52.993Z,56.80
2022-07-25T08:05:22.468Z,56.69
2022-07-25T08:07:51.556Z,56.26
2022-07-25T08:10:21.542Z,55.85
2022-07-25T08:12:49.433Z,55.62
2022-07-25T08:15:19.126Z,55.81
2022-07-25T08:17:47.367Z,56.23
2022-07-25T08:20:36.720Z,55.55
2022-07-25T08:23:03.691Z,55.54
2022-07-25T08:25:32.169Z,55.11
2022-07-25T08:28:00.224Z,55.07
2022-07-25T08:30:29.562Z,55.02
2022-07-25T08:32:59.700Z,54.16
2022-07-25T08:35:28.799Z,54.26
2022-07-25T08:37:57.254Z,53.98
2022-07-25T08:40:26.902Z,53.51
2022-07-25T08:42:56.403Z,53.27
2022-07-25T08:45:24.591Z,52.97
2022-07-25T08:47:55.016Z,53.83
2022-07-25T08:50:25.348Z,53.81
2022-07-25T08:53:04.926Z,53.53
2022-07-25T08:55:40.985Z,52.80
2022-07-25T08:58:08.672Z,52.96
2022-07-25T09:00:36.632Z,52.55
2022-07-25T09:03:07.211Z,52.08
2022-07-25T09:05:37.245Z,51.79
2022-07-25T09:08:08.608Z,51.81
2022-07-25T09:10:36.950Z,51.78
2022-07-25T09:13:07.776Z,52.04
2022-07-25T09:15:36.825Z,51.00
2022-07-25T09:18:07.574Z,50.67
2022-07-25T09:20:40.987Z,50.42
2022-07-25T09:23:09.120Z,49.30
2022-07-25T09:25:37.013Z,49.25
2022-07-25T09:28:14.834Z,49.25
2022-07-25T09:30:55.137Z,48.39
2022-07-25T09:33:25.685Z,48.58
2022-07-25T09:35:54.331Z,48.23
2022-07-25T09:38:23.035Z,48.30
2022-07-25T09:40:58.055Z,48.15
2022-07-25T09:43:36.950Z,47.81
2022-07-25T09:46:05.091Z,47.54
2022-07-25T09:48:34.341Z,47.32
2022-07-25T09:51:02.553Z,47.06
2022-07-25T09:53:30.387Z,46.80
2022-07-25T09:55:58.048Z,46.11
2022-07-25T09:58:25.885Z,46.32
2022-07-25T10:00:57.476Z,46.23
2022-07-25T10:03:30.890Z,45.66
2022-07-25T10:06:11.412Z,45.77
2022-07-25T10:08:39.946Z,44.95
2022-07-25T10:11:18.697Z,44.21
2022-07-25T10:13:46.388Z,44.20
2022-07-25T10:16:18.945Z,43.78
2022-07-25T10:18:51.959Z,43.88
2022-07-25T10:21:27.218Z,43.59
2022-07-25T10:24:03.661Z,43.18
2022-07-25T10:26:32.785Z,43.22
2022-07-25T10:29:01.702Z,43.62
2022-07-25T10:31:37.002Z,43.71
2022-07-25T10:34:07.221Z,43.57
2022-07-25T10:36:47.485Z,44.21
2022-07-25T10:39:16.437Z,43.49
2022-07-25T10:41:53.754Z,44.04
2022-07-25T10:44:21.671Z,43.47
2022-07-25T10:46:50.231Z,43.70
2022-07-25T10:49:19.901Z,43.67
2022-07-25T10:51:57.317Z,43.48
2022-07-25T10:54:25.031Z,43.35
2022-07-25T10:56:55.056Z,43.50
2022-07-25T10:59:34.952Z,43.23
2022-07-25T11:02:03.483Z,43.39
2022-07-25T11:04:31.764Z,42.99
2022-07-25T11:07:09.298Z,43.12
2022-07-25T11:09:37.009Z,43.04
2022-07-25T11:12:05.408Z,42.92
2022-07-25T11:14:34.951Z,43.12
2022-07-25T11:17:15.607Z,42.82
2022-07-25T11:19:44.781Z,43.52
2022-07-25T11:22:13.798Z,43.46
2022-07-25T11:24:43.010Z,43.38
2022-07-25T11:27:12.757Z,43.41
2022-07-25T11:29:41.324Z,43.69
2022-07-25T11:32:10.555Z,43.93
2022-07-25T11:34:41.211Z,43.41
2022-07-25T11:37:11.348Z,42.79
2022-07-25T11:39:42.085Z,42.95
2022-07-25T11:42:11.343Z,42.77
2022-07-25T11:44:44.251Z,42.68
2022-07-25T11:47:24.806Z,42.88
2022-07-25T11:49:53.550Z,42.14
2022-07-25T11:52:22.451Z,42.32
2022-07-25T11:54:58.595Z,42.43
2022-07-25T11:57:28.870Z,42.57
2022-07-25T11:59:57.088Z,42.04
2022-07-25T12:02:26.259Z,41.47
2022-07-25T12:04:58.132Z,41.45
2022-07-25T12:07:37.694Z,41.24
2022-07-25T12:10:08.129Z,41.21
2022-07-25T12:12:51.240Z,42.17
2022-07-25T12:15:23.053Z,42.02
2022-07-25T12:17:51.634Z,42.54
2022-07-25T12:20:21.033Z,42.54
2022-07-25T12:22:49.727Z,42.54
2022-07-25T12:25:18.764Z,42.18
2022-07-25T12:27:46.662Z,41.86
2022-07-25T12:30:15.012Z,42.13
2022-07-25T12:32:43.115Z,42.57
2022-07-25T12:35:12.280Z,42.41
2022-07-25T12:37:41.228Z,42.85
2022-07-25T12:40:10.482Z,43.01
2022-07-25T12:42:39.511Z,43.01
2022-07-25T12:45:08.541Z,43.53
2022-07-25T12:47:36.747Z,43.56
2022-07-25T12:50:06.224Z,43.86
2022-07-25T12:52:33.917Z,43.93
2022-07-25T12:55:01.660Z,45.10
2022-07-25T12:57:29.304Z,44.78
2022-07-25T12:59:58.359Z,45.11
2022-07-25T13:02:26.112Z,44.74
2022-07-25T13:04:53.782Z,44.91
2022-07-25T13:07:21.605Z,44.88
2022-07-25T13:09:49.281Z,44.44
2022-07-25T13:12:16.973Z,44.54
2022-07-25T13:14:44.683Z,44.35
2022-07-25T13:17:13.687Z,43.77
2022-07-25T13:19:41.798Z,44.08
2022-07-25T13:22:09.495Z,43.99
2022-07-25T13:24:37.438Z,44.41
2022-07-25T13:27:05.697Z,44.51
2022-07-25T13:29:33.459Z,45.25
2022-07-25T13:32:02.579Z,44.96
2022-07-25T13:34:31.819Z,44.77
2022-07-25T13:36:59.593Z,45.33
2022-07-25T13:39:27.284Z,45.02
2022-07-25T13:41:55.014Z,44.59
2022-07-25T13:44:22.731Z,44.66
2022-07-25T13:46:50.603Z,44.39
2022-07-25T13:49:18.832Z,44.08
2022-07-25T13:51:47.887Z,43.89
2022-07-25T13:54:15.653Z,43.70
2022-07-25T13:56:43.381Z,43.93
2022-07-25T13:59:16.003Z,43.61
2022-07-25T14:01:47.422Z,43.98
2022-07-25T14:04:15.207Z,42.71
2022-07-25T14:06:42.988Z,42.46
2022-07-25T14:09:12.040Z,42.86
2022-07-25T14:11:39.808Z,42.79
2022-07-25T14:14:07.601Z,42.65
2022-07-25T14:16:35.430Z,42.63
2022-07-25T14:19:03.522Z,43.11
2022-07-25T14:21:31.718Z,43.08
2022-07-25T14:23:59.398Z,43.09
2022-07-25T14:26:28.725Z,43.27
2022-07-25T14:28:56.665Z,43.63
2022-07-25T14:31:24.485Z,44.01
2022-07-25T14:33:52.413Z,44.49
2022-07-25T14:36:20.129Z,43.94
2022-07-25T14:38:48.294Z,44.14
2022-07-25T14:41:16.469Z,43.38
2022-07-25T14:43:45.660Z,43.61
2022-07-25T14:46:13.363Z,43.87
2022-07-25T14:48:41.328Z,43.40
2022-07-25T14:51:09.155Z,43.58
2022-07-25T14:53:37.289Z,43.59
2022-07-25T14:56:06.522Z,43.36
2022-07-25T14:58:34.734Z,43.39
2022-07-25T15:01:03.832Z,43.01
2022-07-25T15:03:31.811Z,43.33
2022-07-25T15:05:59.548Z,42.74
2022-07-25T15:08:27.297Z,42.75
2022-07-25T15:10:54.930Z,42.28
2022-07-25T15:13:31.469Z,41.99
2022-07-25T15:15:59.948Z,42.10
2022-07-25T15:18:29.207Z,42.17
2022-07-25T15:20:56.873Z,41.79
2022-07-25T15:23:24.900Z,41.68
2022-07-25T15:26:08.098Z,41.82
2022-07-25T15:28:38.481Z,41.96
2022-07-25T15:31:06.918Z,42.07
2022-07-25T15:33:35.932Z,42.14
2022-07-25T15:36:03.756Z,42.64
2022-07-25T15:38:31.575Z,42.51
2022-07-25T15:40:59.355Z,42.67
2022-07-25T15:43:27.370Z,42.98
2022-07-25T15:45:55.011Z,42.48
2022-07-25T15:48:23.595Z,43.12
2022-07-25T15:50:52.802Z,42.86
2022-07-25T15:53:20.616Z,42.51
2022-07-25T15:55:48.503Z,42.19
2022-07-25T15:58:16.313Z,42.81
2022-07-25T16:00:44.295Z,42.58
2022-07-25T16:03:13.691Z,42.57
2022-07-25T16:05:42.132Z,42.89
2022-07-25T16:08:11.144Z,43.27
2022-07-25T16:10:39.805Z,43.16
2022-07-25T16:13:07.578Z,43.84
2022-07-25T16:15:35.582Z,43.37
2022-07-25T16:18:03.406Z,43.58
2022-07-25T16:20:32.289Z,43.39
2022-07-25T16:23:00.533Z,43.42
2022-07-25T16:25:30.285Z,44.08
2022-07-25T16:27:59.536Z,43.34
2022-07-25T16:30:27.804Z,43.13
2022-07-25T16:32:55.901Z,43.07
2022-07-25T16:35:23.774Z,42.96
2022-07-25T16:37:51.609Z,42.31
2022-07-25T16:40:19.256Z,42.82
2022-07-25T16:42:50.505Z,43.93
2022-07-25T16:45:18.161Z,44.05
2022-07-25T16:47:45.790Z,44.43
2022-07-25T16:50:13.584Z,45.18
2022-07-25T16:52:41.193Z,44.97
2022-07-25T16:55:09.512Z,45.53
2022-07-25T16:57:38.867Z,45.63
2022-07-25T17:00:11.397Z,45.52
2022-07-25T17:02:39.753Z,44.83
2022-07-25T17:05:07.949Z,45.49
2022-07-25T17:07:35.783Z,44.00
2022-07-25T17:10:03.817Z,43.47
2022-07-25T17:12:31.495Z,43.54
2022-07-25T17:14:59.186Z,43.17
2022-07-25T17:17:28.170Z,43.94
2022-07-25T17:19:59.889Z,44.18
2022-07-25T17:22:27.893Z,44.84
2022-07-25T17:24:58.680Z,45.25
2022-07-25T17:27:26.373Z,45.42
2022-07-25T17:29:54.062Z,45.44
2022-07-25T17:32:25.023Z,45.54
2022-07-25T17:34:56.775Z,45.74
2022-07-25T17:37:24.490Z,45.59
2022-07-25T17:39:52.260Z,45.97
2022-07-25T17:42:22.228Z,46.13
2022-07-25T17:44:50.272Z,46.26
2022-07-25T17:47:18.471Z,46.39
2022-07-25T17:49:46.231Z,45.87
2022-07-25T17:52:15.932Z,45.87
2022-07-25T17:54:43.758Z,45.48
2022-07-25T17:57:11.905Z,46.18
2022-07-25T17:59:39.651Z,46.36
2022-07-25T18:02:07.522Z,46.79
2022-07-25T18:04:36.546Z,47.19
2022-07-25T18:07:05.691Z,47.48
2022-07-25T18:09:34.800Z,47.51
2022-07-25T18:12:02.525Z,47.65
2022-07-25T18:14:30.652Z,47.99
2022-07-25T18:16:58.694Z,48.16
2022-07-25T18:19:26.483Z,48.48
2022-07-25T18:21:54.303Z,48.54
2022-07-25T18:24:30.489Z,49.00
2022-07-25T18:27:10.409Z,49.25
2022-07-25T18:29:47.093Z,49.40
2022-07-25T18:32:23.636Z,49.72
2022-07-25T18:35:00.676Z,49.85
2022-07-25T18:37:38.297Z,50.15
2022-07-25T18:40:17.837Z,50.20
2022-07-25T18:43:00.009Z,50.45
2022-07-25T18:45:42.830Z,50.58
2022-07-25T18:48:22.934Z,51.16
2022-07-25T18:50:54.120Z,51.38
2022-07-25T18:53:21.789Z,51.79
2022-07-25T18:55:49.661Z,51.69
2022-07-25T18:58:18.833Z,51.94
2022-07-25T19:00:46.598Z,52.47
2022-07-25T19:03:14.320Z,52.30
2022-07-25T19:05:43.012Z,52.55
2022-07-25T19:08:10.879Z,51.82
2022-07-25T19:10:38.656Z,52.04
2022-07-25T19:13:06.297Z,51.36
2022-07-25T19:15:35.813Z,51.52
2022-07-25T19:18:05.109Z,51.87
2022-07-25T19:20:33.320Z,51.99
2022-07-25T19:23:01.007Z,52.11
2022-07-25T19:25:28.730Z,52.69
2022-07-25T19:27:56.434Z,52.38
2022-07-25T19:30:24.103Z,52.50
2022-07-25T19:32:53.245Z,52.73
2022-07-25T19:35:26.075Z,53.06
2022-07-25T19:37:54.163Z,53.18
2022-07-25T19:40:21.980Z,53.71
2022-07-25T19:42:49.698Z,53.78
2022-07-25T19:45:17.336Z,53.75
2022-07-25T19:47:45.217Z,54.04
2022-07-25T19:50:14.281Z,54.39
2022-07-25T19:52:42.093Z,54.77
2022-07-25T19:55:10.958Z,54.99
2022-07-25T19:57:38.825Z,55.22
2022-07-25T20:00:08.340Z,55.61
2022-07-25T20:02:36.190Z,56.07
2022-07-25T20:05:04.075Z,55.94
2022-07-25T20:07:33.399Z,56.34
2022-07-25T20:10:01.124Z,56.30
2022-07-25T20:12:29.051Z,56.78
2022-07-25T20:14:56.824Z,56.67
2022-07-25T20:17:24.494Z,57.04
2022-07-25T20:19:52.791Z,56.79
2022-07-25T20:22:20.690Z,57.04
2022-07-25T20:24:49.746Z,57.34
2022-07-25T20:27:17.518Z,57.35
2022-07-25T20:29:45.216Z,57.09
2022-07-25T20:32:12.934Z,56.77
2022-07-25T20:34:40.644Z,57.21
2022-07-25T20:37:08.405Z,57.38
2022-07-25T20:39:36.243Z,58.00
2022-07-25T20:42:05.634Z,58.11
2022-07-25T20:44:33.324Z,58.01
2022-07-25T20:47:01.515Z,58.64
2022-07-25T20:49:36.060Z,58.94
2022-07-25T20:52:11.157Z,59.19
2022-07-25T20:54:39.862Z,59.23
2022-07-25T20:57:08.942Z,59.04
2022-07-25T20:59:36.569Z,59.58
2022-07-25T21:02:04.328Z,59.66
2022-07-25T21:04:32.039Z,59.44
2022-07-25T21:06:59.712Z,60.01
2022-07-25T21:09:32.499Z,59.92
2022-07-25T21:12:00.486Z,60.05
2022-07-25T21:14:29.838Z,60.33
2022-07-25T21:16:57.704Z,60.80
2022-07-25T21:19:25.440Z,60.87
2022-07-25T21:21:53.217Z,60.99
2022-07-25T21:24:20.868Z,60.88
2022-07-25T21:26:48.690Z,61.00
2022-07-25T21:29:16.373Z,60.84
2022-07-25T21:31:45.459Z,61.41
2022-07-25T21:34:13.201Z,61.52
2022-07-25T21:36:40.948Z,61.35
2022-07-25T21:39:09.352Z,61.31
2022-07-25T21:41:37.448Z,61.90
2022-07-25T21:44:05.477Z,61.42
2022-07-25T21:46:33.232Z,61.92
2022-07-25T21:49:40.698Z,62.08
2022-07-25T21:52:07.596Z,62.34
2022-07-25T21:54:36.318Z,62.32
2022-07-25T21:57:04.322Z,62.42
2022-07-25T21:59:31.989Z,62.49
2022-07-25T22:02:00.462Z,63.03
2022-07-25T22:04:29.520Z,62.90
2022-07-25T22:06:57.198Z,62.67
2022-07-25T22:09:24.854Z,63.07
2022-07-25T22:11:52.514Z,63.08
2022-07-25T22:14:20.175Z,63.21
2022-07-25T22:16:48.089Z,63.84
2022-07-25T22:21:44.811Z,63.91
2022-07-25T22:24:12.559Z,63.90
2022-07-25T22:26:40.190Z,64.10
2022-07-25T22:29:10.511Z,64.22
2022-07-25T22:31:39.497Z,64.07
2022-07-25T22:34:10.122Z,64.02
2022-07-25T22:36:38.183Z,64.19
2022-07-25T22:39:08.006Z,64.29
2022-07-25T22:41:36.274Z,64.90
2022-07-25T22:44:05.556Z,65.25
2022-07-25T22:46:34.551Z,65.11
2022-07-25T22:49:03.246Z,65.55
2022-07-25T22:51:31.309Z,65.54
2022-07-25T22:54:01.897Z,65.38
2022-07-25T22:56:31.650Z,65.47
2022-07-25T22:59:00.354Z,65.84
2022-07-25T23:01:30.160Z,66.19
2022-07-25T23:03:58.533Z,66.11
2022-07-25T23:06:26.874Z,66.56
2022-07-25T23:08:56.010Z,66.81
2022-07-25T23:11:24.532Z,66.12
2022-07-25T23:13:55.713Z,66.69
2022-07-25T23:16:27.681Z,67.51
2022-07-25T23:18:57.147Z,67.00
2022-07-25T23:21:25.524Z,67.98
2022-07-25T23:23:55.401Z,68.33
2022-07-25T23:26:23.286Z,68.42
2022-07-25T23:28:51.162Z,68.00
2022-07-25T23:31:20.284Z,68.65
2022-07-25T23:33:50.614Z,68.61
2022-07-25T23:36:18.355Z,68.38
2022-07-25T23:38:46.710Z,68.70
2022-07-25T23:41:14.455Z,68.95
2022-07-25T23:43:56.947Z,69.15
2022-07-25T23:46:30.905Z,69.10
2022-07-25T23:48:59.985Z,69.44
2022-07-25T23:51:27.790Z,69.74
2022-07-25T23:53:55.483Z,69.49
2022-07-25T23:56:23.371Z,69.71
2022-07-25T23:58:51.261Z,69.55
